createdAt,value
2016-07-23T00:00:10.300Z,23.82
2016-07-23T00:00:40.316Z,23.56
2016-07-23T00:01:10.332Z,24.22
2016-07-23T00:01:40.344Z,53.26
2016-07-23T00:02:10.363Z,43.74
2016-07-23T00:02:40.379Z,55.08
2016-07-23T00:03:10.391Z,8.56
2016-07-23T00:03:40.412Z,8.85
2016-07-23T00:04:10.425Z,8.58
2016-07-23T00:04:40.437Z,8.6
2016-07-23T00:05:10.454Z,8.96
2016-07-23T00:05:40.471Z,8.46
2016-07-23T00:06:10.483Z,8.54
2016-07-23T00:06:40.499Z,8.52
2016-07-23T00:07:10.515Z,8.53
2016-07-23T00:07:40.536Z,8.54
2016-07-23T00:08:10.549Z,8.5
2016-07-23T00:08:40.562Z,8.8
2016-07-23T00:09:10.576Z,8.53
2016-07-23T00:09:40.591Z,9.18
2016-07-23T00:10:10.608Z,9.28
2016-07-23T00:10:40.626Z,8.5
2016-07-23T00:11:10.638Z,8.59
2016-07-23T00:11:40.654Z,8.91
2016-07-23T00:12:10.670Z,52.96
2016-07-23T00:12:40.688Z,8.53
2016-07-23T00:13:10.699Z,8.56
2016-07-23T00:13:40.715Z,8.62
2016-07-23T00:14:10.734Z,8.48
2016-07-23T00:14:40.747Z,8.56
2016-07-23T00:15:10.761Z,8.5
2016-07-23T00:15:40.777Z,8.49
2016-07-23T00:16:10.792Z,9.63
2016-07-23T00:16:40.806Z,8.49
2016-07-23T00:17:10.821Z,8.5
2016-07-23T00:17:40.836Z,8.52
2016-07-23T00:18:10.856Z,8.59
2016-07-23T00:18:40.869Z,8.49
2016-07-23T00:19:10.882Z,8.5
2016-07-23T00:19:40.909Z,8.5
2016-07-23T00:20:10.913Z,41.72
2016-07-23T00:20:40.931Z,8.26
2016-07-23T00:21:10.944Z,8.48
2016-07-23T00:21:40.962Z,8.4
2016-07-23T00:22:10.977Z,8.68
2016-07-23T00:22:40.992Z,8.09
2016-07-23T00:23:11.005Z,8.59
2016-07-23T00:23:41.020Z,8.08
2016-07-23T00:24:11.037Z,8.44
2016-07-23T00:24:41.051Z,7.92
2016-07-23T00:25:11.069Z,7.89
2016-07-23T00:25:41.084Z,7.91
2016-07-23T00:26:11.098Z,7.87
2016-07-23T00:26:41.114Z,7.88
2016-07-23T00:27:11.132Z,7.87
2016-07-23T00:27:41.145Z,8.62
2016-07-23T00:28:11.159Z,7.91
2016-07-23T00:28:41.188Z,50.23
2016-07-23T00:29:11.191Z,42.94
2016-07-23T00:29:41.204Z,23.37
2016-07-23T00:30:11.222Z,21.66
2016-07-23T00:30:41.251Z,24.67
2016-07-23T00:31:11.252Z,24.36
2016-07-23T00:31:41.267Z,22.77
2016-07-23T00:32:11.287Z,46.46
2016-07-23T00:32:41.307Z,52.88
2016-07-23T00:33:11.313Z,55.16
2016-07-23T00:33:41.328Z,8.46
2016-07-23T00:34:11.350Z,8.47
2016-07-23T00:34:41.360Z,8.51
2016-07-23T00:35:11.378Z,8.43
2016-07-23T00:35:41.391Z,8.49
2016-07-23T00:36:11.407Z,9.11
2016-07-23T00:36:41.421Z,8.51
2016-07-23T00:37:11.438Z,8.48
2016-07-23T00:37:41.451Z,8.5
2016-07-23T00:38:11.468Z,9.06
2016-07-23T00:38:41.482Z,8.5
2016-07-23T00:39:11.498Z,8.44
2016-07-23T00:39:41.512Z,8.98
2016-07-23T00:40:11.529Z,8.46
2016-07-23T00:40:41.552Z,8.65
2016-07-23T00:41:11.561Z,8.92
2016-07-23T00:41:41.574Z,8.35
2016-07-23T00:42:11.591Z,8.46
2016-07-23T00:42:41.614Z,8.5
2016-07-23T00:43:11.621Z,8.57
2016-07-23T00:43:41.640Z,8.88
2016-07-23T00:44:11.652Z,8.74
2016-07-23T00:44:41.673Z,8.47
2016-07-23T00:45:11.684Z,8.63
2016-07-23T00:45:41.700Z,8.5
2016-07-23T00:46:11.713Z,8.53
2016-07-23T00:46:41.729Z,8.51
2016-07-23T00:47:11.745Z,10.1
2016-07-23T00:47:41.765Z,8.91
2016-07-23T00:48:11.778Z,8.52
2016-07-23T00:48:41.800Z,8.56
2016-07-23T00:49:11.806Z,8.93
2016-07-23T00:49:41.825Z,8.46
2016-07-23T00:50:11.837Z,8.64
2016-07-23T00:50:41.853Z,8.3
2016-07-23T00:51:11.867Z,8.26
2016-07-23T00:51:41.888Z,8.5
2016-07-23T00:52:11.899Z,8.79
2016-07-23T00:52:41.920Z,8.48
2016-07-23T00:53:11.929Z,9.19
2016-07-23T00:53:41.945Z,8.34
2016-07-23T00:54:11.962Z,8.18
2016-07-23T00:54:41.988Z,8.48
2016-07-23T00:55:11.992Z,7.94
2016-07-23T00:55:42.010Z,7.95
2016-07-23T00:56:12.022Z,7.94
2016-07-23T00:56:42.039Z,7.93
2016-07-23T00:57:12.053Z,7.82
2016-07-23T00:57:42.070Z,9.15
2016-07-23T00:58:12.083Z,7.85
2016-07-23T00:58:42.102Z,50.14
2016-07-23T00:59:12.114Z,50.57
2016-07-23T00:59:42.131Z,23.44
2016-07-23T01:00:12.145Z,22.27
2016-07-23T01:00:42.160Z,23.6
2016-07-23T01:01:12.176Z,23.49
2016-07-23T01:01:42.190Z,23.75
2016-07-23T01:02:12.207Z,20.86
2016-07-23T01:02:42.221Z,53.04
2016-07-23T01:03:12.238Z,53.17
2016-07-23T01:03:42.255Z,46.51
2016-07-23T01:04:12.268Z,8.51
2016-07-23T01:04:42.286Z,8.46
2016-07-23T01:05:12.300Z,9.11
2016-07-23T01:05:42.318Z,9.14
2016-07-23T01:06:12.330Z,9.48
2016-07-23T01:06:42.345Z,8.52
2016-07-23T01:07:12.362Z,8.43
2016-07-23T01:07:42.377Z,8.51
2016-07-23T01:08:12.397Z,8.45
2016-07-23T01:08:42.405Z,9.12
2016-07-23T01:09:12.423Z,9.17
2016-07-23T01:09:42.440Z,9.57
2016-07-23T01:10:12.455Z,9.79
2016-07-23T01:10:42.471Z,8.49
2016-07-23T01:11:12.485Z,8.46
2016-07-23T01:11:42.499Z,8.9
2016-07-23T01:12:12.518Z,8.5
2016-07-23T01:12:42.529Z,8.98
2016-07-23T01:13:12.550Z,8.9
2016-07-23T01:13:42.560Z,8.84
2016-07-23T01:14:12.575Z,8.51
2016-07-23T01:14:42.593Z,8.56
2016-07-23T01:15:12.610Z,8.48
2016-07-23T01:15:42.625Z,8.8
2016-07-23T01:16:12.641Z,8.44
2016-07-23T01:16:42.653Z,8.48
2016-07-23T01:17:12.672Z,8.67
2016-07-23T01:17:42.683Z,8.41
2016-07-23T01:18:12.699Z,8.42
2016-07-23T01:18:42.714Z,8.48
2016-07-23T01:19:12.730Z,8.57
2016-07-23T01:19:42.745Z,8.47
2016-07-23T01:20:12.762Z,8.48
2016-07-23T01:20:42.776Z,8.28
2016-07-23T01:21:12.793Z,8.25
2016-07-23T01:21:42.807Z,8.28
2016-07-23T01:22:12.824Z,8.21
2016-07-23T01:22:42.837Z,8.69
2016-07-23T01:23:12.854Z,8.17
2016-07-23T01:23:42.869Z,8.2
2016-07-23T01:24:12.885Z,8.09
2016-07-23T01:24:42.899Z,7.89
2016-07-23T01:25:12.916Z,8.03
2016-07-23T01:25:42.932Z,8.45
2016-07-23T01:26:12.948Z,7.91
2016-07-23T01:26:42.960Z,7.88
2016-07-23T01:27:12.978Z,7.9
2016-07-23T01:27:42.992Z,7.85
2016-07-23T01:28:13.012Z,7.9
2016-07-23T01:28:43.028Z,7.85
2016-07-23T01:29:13.038Z,43.58
2016-07-23T01:29:43.053Z,42.17
2016-07-23T01:30:13.070Z,23.3
2016-07-23T01:30:43.084Z,23.37
2016-07-23T01:31:13.100Z,23.72
2016-07-23T01:31:43.115Z,23.88
2016-07-23T01:32:13.132Z,23.68
2016-07-23T01:32:43.148Z,22.76
2016-07-23T01:33:13.161Z,37.78
2016-07-23T01:33:43.183Z,55.93
2016-07-23T01:34:13.191Z,9.17
2016-07-23T01:34:43.211Z,8.49
2016-07-23T01:35:13.221Z,8.48
2016-07-23T01:35:43.242Z,8.49
2016-07-23T01:36:13.254Z,9.2
2016-07-23T01:36:43.273Z,9.2
2016-07-23T01:37:13.283Z,42.29
2016-07-23T01:37:43.304Z,8.51
2016-07-23T01:38:13.314Z,8.51
2016-07-23T01:38:43.332Z,9.12
2016-07-23T01:39:13.345Z,8.4
2016-07-23T01:39:43.362Z,8.48
2016-07-23T01:40:13.376Z,8.53
2016-07-23T01:40:43.390Z,9.15
2016-07-23T01:41:13.406Z,8.48
2016-07-23T01:41:43.422Z,8.47
2016-07-23T01:42:13.438Z,8.5
2016-07-23T01:42:43.452Z,8.45
2016-07-23T01:43:13.468Z,8.49
2016-07-23T01:43:43.483Z,8.43
2016-07-23T01:44:13.499Z,9.09
2016-07-23T01:44:43.514Z,8.51
2016-07-23T01:45:13.531Z,8.51
2016-07-23T01:45:43.546Z,8.54
2016-07-23T01:46:13.560Z,8.49
2016-07-23T01:46:43.577Z,8.7
2016-07-23T01:47:13.592Z,8.48
2016-07-23T01:47:43.607Z,8.66
2016-07-23T01:48:13.623Z,8.54
2016-07-23T01:48:43.641Z,8.47
2016-07-23T01:49:13.653Z,8.61
2016-07-23T01:49:43.765Z,8.47
2016-07-23T01:50:13.783Z,7.28
2016-07-23T01:50:43.700Z,7.35
2016-07-23T01:51:13.718Z,8.32
2016-07-23T01:51:43.730Z,8.24
2016-07-23T01:52:13.746Z,8.33
2016-07-23T01:52:43.762Z,8.95
2016-07-23T01:53:13.779Z,8.15
2016-07-23T01:53:43.791Z,8.1
2016-07-23T01:54:13.805Z,9.16
2016-07-23T01:54:43.833Z,8.02
2016-07-23T01:55:13.839Z,7.96
2016-07-23T01:55:43.852Z,7.86
2016-07-23T01:56:13.869Z,8.58
2016-07-23T01:56:43.883Z,7.9
2016-07-23T01:57:13.897Z,8.45
2016-07-23T01:57:43.913Z,7.88
2016-07-23T01:58:13.929Z,7.9
2016-07-23T01:58:43.945Z,8.5
2016-07-23T01:59:13.959Z,7.86
2016-07-23T01:59:43.975Z,50.51
2016-07-23T02:00:13.990Z,51.49
2016-07-23T02:00:44.007Z,23.39
2016-07-23T02:01:14.024Z,23.51
2016-07-23T02:01:44.037Z,23.7
2016-07-23T02:02:14.052Z,21.69
2016-07-23T02:02:44.068Z,23.59
2016-07-23T02:03:14.084Z,21.16
2016-07-23T02:03:44.099Z,52.16
2016-07-23T02:04:14.113Z,46.8
2016-07-23T02:04:44.130Z,9.95
2016-07-23T02:05:14.144Z,8.55
2016-07-23T02:05:44.161Z,8.46
2016-07-23T02:06:14.174Z,8.84
2016-07-23T02:06:44.191Z,8.52
2016-07-23T02:07:14.207Z,8.59
2016-07-23T02:07:44.219Z,9.15
2016-07-23T02:08:14.240Z,8.9
2016-07-23T02:08:44.254Z,8.56
2016-07-23T02:09:14.268Z,8.72
2016-07-23T02:09:44.284Z,8.44
2016-07-23T02:10:14.298Z,8.44
2016-07-23T02:10:44.315Z,44.95
2016-07-23T02:11:14.328Z,8.52
2016-07-23T02:11:44.343Z,8.43
2016-07-23T02:12:14.360Z,8.58
2016-07-23T02:12:44.375Z,8.58
2016-07-23T02:13:14.390Z,8.52
2016-07-23T02:13:44.405Z,8.78
2016-07-23T02:14:14.419Z,8.5
2016-07-23T02:14:44.435Z,8.74
2016-07-23T02:15:14.450Z,8.51
2016-07-23T02:15:44.471Z,8.44
2016-07-23T02:16:14.480Z,9.08
2016-07-23T02:16:44.497Z,8.6
2016-07-23T02:17:14.512Z,8.51
2016-07-23T02:17:44.528Z,8.49
2016-07-23T02:18:14.543Z,8.46
2016-07-23T02:18:44.562Z,8.54
2016-07-23T02:19:14.573Z,8.48
2016-07-23T02:19:44.591Z,9.14
2016-07-23T02:20:14.605Z,8.53
2016-07-23T02:20:44.619Z,8.48
2016-07-23T02:21:14.635Z,8.45
2016-07-23T02:21:44.649Z,8.37
2016-07-23T02:22:14.665Z,8.65
2016-07-23T02:22:44.698Z,8.22
2016-07-23T02:23:14.696Z,8.11
2016-07-23T02:23:44.715Z,9.85
2016-07-23T02:24:14.727Z,8.12
2016-07-23T02:24:44.751Z,8.36
2016-07-23T02:25:14.758Z,8.6
2016-07-23T02:25:44.777Z,7.97
2016-07-23T02:26:14.788Z,7.89
2016-07-23T02:26:44.805Z,7.82
2016-07-23T02:27:14.822Z,7.84
2016-07-23T02:27:44.836Z,8.86
2016-07-23T02:28:14.849Z,7.95
2016-07-23T02:28:44.863Z,8.19
2016-07-23T02:29:14.881Z,8.54
2016-07-23T02:29:44.895Z,7.86
2016-07-23T02:30:14.911Z,50.18
2016-07-23T02:30:44.926Z,50.9
2016-07-23T02:31:14.939Z,23.41
2016-07-23T02:31:44.956Z,23.48
2016-07-23T02:32:14.972Z,23.75
2016-07-23T02:32:44.989Z,23.71
2016-07-23T02:33:15.003Z,23.83
2016-07-23T02:33:45.020Z,24.16
2016-07-23T02:34:15.034Z,22.8
2016-07-23T02:34:45.048Z,58.27
2016-07-23T02:35:15.065Z,8.83
2016-07-23T02:35:45.080Z,8.49
2016-07-23T02:36:15.101Z,8.49
2016-07-23T02:36:45.109Z,9.1
2016-07-23T02:37:15.124Z,8.57
2016-07-23T02:37:45.142Z,8.49
2016-07-23T02:38:15.155Z,8.49
2016-07-23T02:38:45.172Z,8.53
2016-07-23T02:39:15.186Z,8.53
2016-07-23T02:39:45.201Z,9.08
2016-07-23T02:40:15.217Z,9.09
2016-07-23T02:40:45.232Z,9.42
2016-07-23T02:41:15.250Z,8.95
2016-07-23T02:41:45.262Z,8.49
2016-07-23T02:42:15.277Z,9.13
2016-07-23T02:42:45.294Z,8.77
2016-07-23T02:43:15.310Z,8.59
2016-07-23T02:43:45.326Z,8.83
2016-07-23T02:44:15.349Z,8.51
2016-07-23T02:44:45.355Z,8.48
2016-07-23T02:45:15.374Z,8.97
2016-07-23T02:45:45.387Z,9.35
2016-07-23T02:46:15.402Z,8.46
2016-07-23T02:46:45.423Z,8.49
2016-07-23T02:47:15.436Z,8.5
2016-07-23T02:47:45.449Z,8.53
2016-07-23T02:48:15.462Z,8.45
2016-07-23T02:48:45.477Z,8.46
2016-07-23T02:49:15.495Z,8.48
2016-07-23T02:49:45.507Z,8.56
2016-07-23T02:50:15.524Z,8.68
2016-07-23T02:50:45.539Z,8.49
2016-07-23T02:51:15.553Z,8.9
2016-07-23T02:51:45.569Z,8.48
2016-07-23T02:52:15.586Z,8.33
2016-07-23T02:52:45.600Z,8.72
2016-07-23T02:53:15.614Z,8.45
2016-07-23T02:53:45.630Z,8.31
2016-07-23T02:54:15.647Z,8.19
2016-07-23T02:54:45.661Z,8.34
2016-07-23T02:55:15.676Z,8.71
2016-07-23T02:55:45.692Z,8.01
2016-07-23T02:56:15.708Z,7.91
2016-07-23T02:56:45.722Z,7.88
2016-07-23T02:57:15.737Z,7.86
2016-07-23T02:57:45.752Z,8.2
2016-07-23T02:58:15.770Z,7.81
2016-07-23T02:58:45.782Z,8.91
2016-07-23T02:59:15.799Z,9.16
2016-07-23T02:59:45.812Z,7.89
2016-07-23T03:00:15.834Z,8.4
2016-07-23T03:00:45.844Z,51.99
2016-07-23T03:01:15.858Z,42.01
2016-07-23T03:01:45.874Z,23.56
2016-07-23T03:02:15.890Z,23.54
2016-07-23T03:02:45.906Z,23.74
2016-07-23T03:03:15.920Z,23.56
2016-07-23T03:03:45.941Z,23.88
2016-07-23T03:04:15.951Z,20.93
2016-07-23T03:04:45.966Z,51.99
2016-07-23T03:05:15.981Z,55.14
2016-07-23T03:05:46.001Z,8.48
2016-07-23T03:06:16.012Z,8.51
2016-07-23T03:06:46.032Z,8.49
2016-07-23T03:07:16.045Z,8.55
2016-07-23T03:07:46.058Z,9.28
2016-07-23T03:08:16.073Z,9.17
2016-07-23T03:08:46.088Z,8.54
2016-07-23T03:09:16.105Z,9.14
2016-07-23T03:09:46.119Z,8.52
2016-07-23T03:10:16.136Z,9.13
2016-07-23T03:10:46.152Z,9.18
2016-07-23T03:11:16.164Z,8.93
2016-07-23T03:11:46.187Z,8.51
2016-07-23T03:12:16.195Z,9.12
2016-07-23T03:12:46.212Z,8.44
2016-07-23T03:13:16.226Z,9.03
2016-07-23T03:13:46.247Z,9.15
2016-07-23T03:14:16.257Z,8.97
2016-07-23T03:14:46.272Z,8.91
2016-07-23T03:15:16.287Z,8.48
2016-07-23T03:15:46.306Z,10.04
2016-07-23T03:16:16.318Z,8.47
2016-07-23T03:16:46.335Z,8.44
2016-07-23T03:17:16.350Z,8.63
2016-07-23T03:17:46.366Z,8.55
2016-07-23T03:18:16.377Z,9.04
2016-07-23T03:18:46.394Z,8.88
2016-07-23T03:19:16.411Z,8.54
2016-07-23T03:19:46.427Z,8.49
2016-07-23T03:20:16.439Z,8.39
2016-07-23T03:20:46.456Z,8.5
2016-07-23T03:21:16.470Z,9.11
2016-07-23T03:21:46.487Z,8.49
2016-07-23T03:22:16.503Z,8.39
2016-07-23T03:22:46.515Z,8.59
2016-07-23T03:23:16.531Z,8.26
2016-07-23T03:23:46.547Z,8.24
2016-07-23T03:24:16.560Z,8.81
2016-07-23T03:24:46.578Z,8.36
2016-07-23T03:25:16.591Z,8.5
2016-07-23T03:25:46.612Z,8.49
2016-07-23T03:26:16.622Z,8.01
2016-07-23T03:26:46.640Z,8.17
2016-07-23T03:27:16.653Z,8.03
2016-07-23T03:27:46.667Z,7.87
2016-07-23T03:28:16.683Z,8.07
2016-07-23T03:28:46.699Z,8.38
2016-07-23T03:29:16.718Z,7.86
2016-07-23T03:29:46.728Z,7.93
2016-07-23T03:30:16.744Z,9.08
2016-07-23T03:30:46.761Z,8.45
2016-07-23T03:31:16.773Z,49.81
2016-07-23T03:31:46.790Z,51.14
2016-07-23T03:32:16.805Z,50.48
2016-07-23T03:32:46.822Z,21.46
2016-07-23T03:33:16.835Z,23.56
2016-07-23T03:33:46.851Z,21.89
2016-07-23T03:34:16.866Z,23.54
2016-07-23T03:34:46.890Z,22.66
2016-07-23T03:35:16.894Z,51.48
2016-07-23T03:35:46.912Z,37.69
2016-07-23T03:36:16.929Z,9.55
2016-07-23T03:36:46.941Z,8.48
2016-07-23T03:37:16.957Z,9.04
2016-07-23T03:37:46.974Z,9.12
2016-07-23T03:38:16.988Z,9.1
2016-07-23T03:38:47.005Z,9.62
2016-07-23T03:39:17.020Z,8.46
2016-07-23T03:39:47.035Z,8.4
2016-07-23T03:40:17.053Z,8.53
2016-07-23T03:40:47.063Z,9.07
2016-07-23T03:41:17.077Z,8.46
2016-07-23T03:41:47.094Z,8.44
2016-07-23T03:42:17.108Z,8.48
2016-07-23T03:42:47.125Z,8.46
2016-07-23T03:43:17.139Z,8.44
2016-07-23T03:43:47.156Z,8.45
2016-07-23T03:44:17.172Z,8.8
2016-07-23T03:44:47.184Z,8.79
2016-07-23T03:45:17.203Z,8.39
2016-07-23T03:45:47.216Z,8.78
2016-07-23T03:46:17.232Z,8.36
2016-07-23T03:46:47.246Z,8.45
2016-07-23T03:47:17.267Z,8.35
2016-07-23T03:47:47.278Z,8.4
2016-07-23T03:48:17.293Z,8.46
2016-07-23T03:48:47.309Z,8.42
2016-07-23T03:49:17.328Z,8.36
2016-07-23T03:49:47.340Z,8.35
2016-07-23T03:50:17.358Z,8.78
2016-07-23T03:50:47.375Z,8.36
2016-07-23T03:51:17.396Z,8.38
2016-07-23T03:51:47.400Z,8.49
2016-07-23T03:52:17.415Z,8.28
2016-07-23T03:52:47.430Z,8.4
2016-07-23T03:53:17.449Z,8.52
2016-07-23T03:53:47.465Z,8.09
2016-07-23T03:54:17.478Z,8.02
2016-07-23T03:54:47.491Z,8.7
2016-07-23T03:55:17.508Z,8.7
2016-07-23T03:55:47.521Z,8.06
2016-07-23T03:56:17.536Z,7.87
2016-07-23T03:56:47.553Z,7.84
2016-07-23T03:57:17.569Z,8.2
2016-07-23T03:57:47.583Z,7.62
2016-07-23T03:58:17.597Z,7.61
2016-07-23T03:58:47.619Z,7.61
2016-07-23T03:59:17.641Z,7.68
2016-07-23T03:59:47.643Z,8.27
2016-07-23T04:00:17.658Z,8.18
2016-07-23T04:00:47.673Z,7.6
2016-07-23T04:01:17.689Z,7.6
2016-07-23T04:01:47.704Z,7.72
2016-07-23T04:02:17.719Z,33.76
2016-07-23T04:02:47.735Z,40.87
2016-07-23T04:03:17.752Z,22.72
2016-07-23T04:03:47.766Z,23.86
2016-07-23T04:04:17.778Z,20.86
2016-07-23T04:04:47.795Z,20.89
2016-07-23T04:05:17.811Z,20.33
2016-07-23T04:05:47.826Z,42
2016-07-23T04:06:17.844Z,52.53
2016-07-23T04:06:47.856Z,8.14
2016-07-23T04:07:17.873Z,8.06
2016-07-23T04:07:47.888Z,8.08
2016-07-23T04:08:17.903Z,8.09
2016-07-23T04:08:47.918Z,8.64
2016-07-23T04:09:17.932Z,9.13
2016-07-23T04:09:47.946Z,8.35
2016-07-23T04:10:17.963Z,8.02
2016-07-23T04:10:47.980Z,8.03
2016-07-23T04:11:17.994Z,8.83
2016-07-23T04:11:48.007Z,9.02
2016-07-23T04:12:18.024Z,8.52
2016-07-23T04:12:48.039Z,8.03
2016-07-23T04:13:18.056Z,8.59
2016-07-23T04:13:48.070Z,7.96
2016-07-23T04:14:18.085Z,7.96
2016-07-23T04:14:48.105Z,7.95
2016-07-23T04:15:18.119Z,7.86
2016-07-23T04:15:48.132Z,7.87
2016-07-23T04:16:18.145Z,8.48
2016-07-23T04:16:48.163Z,8.3
2016-07-23T04:17:18.177Z,7.87
2016-07-23T04:17:48.192Z,7.95
2016-07-23T04:18:18.207Z,8.2
2016-07-23T04:18:48.222Z,8.03
2016-07-23T04:19:18.239Z,7.93
2016-07-23T04:19:48.256Z,7.94
2016-07-23T04:20:18.268Z,8.13
2016-07-23T04:20:48.292Z,7.91
2016-07-23T04:21:18.299Z,7.89
2016-07-23T04:21:48.316Z,8.07
2016-07-23T04:22:18.331Z,8.2
2016-07-23T04:22:48.356Z,7.8
2016-07-23T04:23:18.361Z,8.13
2016-07-23T04:23:48.382Z,7.79
2016-07-23T04:24:18.391Z,8.45
2016-07-23T04:24:48.408Z,7.83
2016-07-23T04:25:18.421Z,8.06
2016-07-23T04:25:48.441Z,7.79
2016-07-23T04:26:18.451Z,7.54
2016-07-23T04:26:48.475Z,7.54
2016-07-23T04:27:18.483Z,7.42
2016-07-23T04:27:48.502Z,7.35
2016-07-23T04:28:18.519Z,7.3
2016-07-23T04:28:48.529Z,7.83
2016-07-23T04:29:18.545Z,7.9
2016-07-23T04:29:48.558Z,8.62
2016-07-23T04:30:18.575Z,7.33
2016-07-23T04:30:48.591Z,7.3
2016-07-23T04:31:18.605Z,7.34
2016-07-23T04:31:48.620Z,7.32
2016-07-23T04:32:18.637Z,7.29
2016-07-23T04:32:48.650Z,47.75
2016-07-23T04:33:18.667Z,39.34
2016-07-23T04:33:48.681Z,22.43
2016-07-23T04:34:18.696Z,22.42
2016-07-23T04:34:48.714Z,22.74
2016-07-23T04:35:18.727Z,22.34
2016-07-23T04:35:48.743Z,21.58
2016-07-23T04:36:18.759Z,48.85
2016-07-23T04:36:48.773Z,52.66
2016-07-23T04:37:18.791Z,7.94
2016-07-23T04:37:48.806Z,8.83
2016-07-23T04:38:18.818Z,8.25
2016-07-23T04:38:48.836Z,8.21
2016-07-23T04:39:18.850Z,8.01
2016-07-23T04:39:48.867Z,8.55
2016-07-23T04:40:18.881Z,8.42
2016-07-23T04:40:48.899Z,8.06
2016-07-23T04:41:18.911Z,8.94
2016-07-23T04:41:48.929Z,8.89
2016-07-23T04:42:18.947Z,8.51
2016-07-23T04:42:48.966Z,8.14
2016-07-23T04:43:18.974Z,8.64
2016-07-23T04:43:48.990Z,8.45
2016-07-23T04:44:19.006Z,8.13
2016-07-23T04:44:49.018Z,8.18
2016-07-23T04:45:19.037Z,8.28
2016-07-23T04:45:49.051Z,8.36
2016-07-23T04:46:19.065Z,8.61
2016-07-23T04:46:49.083Z,8.26
2016-07-23T04:47:19.104Z,8.03
2016-07-23T04:47:49.111Z,8.44
2016-07-23T04:48:19.132Z,8.66
2016-07-23T04:48:49.141Z,8.29
2016-07-23T04:49:19.161Z,8.54
2016-07-23T04:49:49.173Z,9.38
2016-07-23T04:50:19.190Z,9.17
2016-07-23T04:50:49.206Z,9.09
2016-07-23T04:51:19.221Z,9.68
2016-07-23T04:51:49.236Z,10.43
2016-07-23T04:52:19.250Z,9.8
2016-07-23T04:52:49.268Z,9.81
2016-07-23T04:53:19.283Z,9.32
2016-07-23T04:53:49.297Z,9.64
2016-07-23T04:54:19.312Z,8.85
2016-07-23T04:54:49.327Z,8.52
2016-07-23T04:55:19.343Z,9.42
2016-07-23T04:55:49.356Z,9.24
2016-07-23T04:56:19.373Z,9.15
2016-07-23T04:56:49.396Z,9.32
2016-07-23T04:57:19.404Z,10.13
2016-07-23T04:57:49.418Z,8.87
2016-07-23T04:58:19.435Z,9.1
2016-07-23T04:58:49.451Z,9.27
2016-07-23T04:59:19.464Z,8.82
2016-07-23T04:59:49.484Z,10.3
2016-07-23T05:00:19.498Z,9.59
2016-07-23T05:00:49.513Z,9.24
2016-07-23T05:01:19.528Z,10.24
2016-07-23T05:01:49.544Z,55.84
2016-07-23T05:02:19.557Z,47.72
2016-07-23T05:02:49.578Z,48.24
2016-07-23T05:03:19.589Z,56.35
2016-07-23T05:03:49.605Z,30.99
2016-07-23T05:04:19.622Z,32.2
2016-07-23T05:04:49.637Z,32.64
2016-07-23T05:05:19.652Z,29.28
2016-07-23T05:05:49.668Z,29.08
2016-07-23T05:06:19.683Z,58.57
2016-07-23T05:06:49.709Z,54.22
2016-07-23T05:07:19.719Z,12.55
2016-07-23T05:07:49.733Z,12.02
2016-07-23T05:08:19.745Z,12.3
2016-07-23T05:08:49.767Z,12.59
2016-07-23T05:09:19.776Z,14.75
2016-07-23T05:09:49.791Z,12.12
2016-07-23T05:10:19.806Z,12.78
2016-07-23T05:10:49.823Z,12.34
2016-07-23T05:11:19.838Z,12.44
2016-07-23T05:11:49.851Z,12.36
2016-07-23T05:12:19.870Z,12.63
2016-07-23T05:12:49.885Z,14.56
2016-07-23T05:13:19.901Z,12.79
2016-07-23T05:13:49.916Z,12.39
2016-07-23T05:14:19.931Z,12.31
2016-07-23T05:14:49.948Z,12.62
2016-07-23T05:15:19.962Z,13.03
2016-07-23T05:15:49.979Z,13.21
2016-07-23T05:16:19.995Z,12.81
2016-07-23T05:16:50.016Z,12.59
2016-07-23T05:17:20.026Z,12.88
2016-07-23T05:17:50.040Z,13.23
2016-07-23T05:18:20.058Z,13.66
2016-07-23T05:18:50.079Z,12.91
2016-07-23T05:19:20.090Z,12.44
2016-07-23T05:19:50.104Z,12.68
2016-07-23T05:20:20.126Z,13.07
2016-07-23T05:20:50.135Z,12.13
2016-07-23T05:21:20.149Z,12.92
2016-07-23T05:21:50.165Z,12.71
2016-07-23T05:22:20.184Z,12.89
2016-07-23T05:22:50.201Z,12.76
2016-07-23T05:23:20.214Z,13.42
2016-07-23T05:23:50.230Z,11.97
2016-07-23T05:24:20.244Z,11.48
2016-07-23T05:24:50.269Z,10.31
2016-07-23T05:25:20.277Z,8.54
2016-07-23T05:25:50.291Z,7.41
2016-07-23T05:26:20.308Z,7.07
2016-07-23T05:26:50.323Z,6.76
2016-07-23T05:27:20.338Z,7.44
2016-07-23T05:27:50.353Z,7
2016-07-23T05:28:20.369Z,7.01
2016-07-23T05:28:50.385Z,6.58
2016-07-23T05:29:20.402Z,6.62
2016-07-23T05:29:50.419Z,6.9
2016-07-23T05:30:20.441Z,6.66
2016-07-23T05:30:50.455Z,7.2
2016-07-23T05:31:20.463Z,6.8
2016-07-23T05:31:50.484Z,7.23
2016-07-23T05:32:20.494Z,7.5
2016-07-23T05:32:50.515Z,7.08
2016-07-23T05:33:20.526Z,46.06
2016-07-23T05:33:50.546Z,45.97
2016-07-23T05:34:20.557Z,19.38
2016-07-23T05:34:50.579Z,21.41
2016-07-23T05:35:20.602Z,21.53
2016-07-23T05:35:50.606Z,21.51
2016-07-23T05:36:20.622Z,18.76
2016-07-23T05:36:50.644Z,39.05
2016-07-23T05:37:20.653Z,42.09
2016-07-23T05:37:50.671Z,7.63
2016-07-23T05:38:20.685Z,7.66
2016-07-23T05:38:50.704Z,8.13
2016-07-23T05:39:20.716Z,7.66
2016-07-23T05:39:50.730Z,7.67
2016-07-23T05:40:20.747Z,7.7
2016-07-23T05:40:50.772Z,7.78
2016-07-23T05:41:20.780Z,7.87
2016-07-23T05:41:50.793Z,8.51
2016-07-23T05:42:20.807Z,8
2016-07-23T05:42:50.825Z,8.08
2016-07-23T05:43:20.845Z,8.66
2016-07-23T05:43:50.858Z,8.06
2016-07-23T05:44:20.871Z,8.14
2016-07-23T05:44:50.892Z,8.16
2016-07-23T05:45:20.906Z,8.26
2016-07-23T05:45:50.918Z,8.27
2016-07-23T05:46:20.935Z,8.31
2016-07-23T05:46:50.952Z,8.37
2016-07-23T05:47:20.968Z,8.47
2016-07-23T05:47:50.983Z,8.54
2016-07-23T05:48:20.999Z,52.54
2016-07-23T05:48:51.013Z,8.87
2016-07-23T05:49:21.030Z,8.91
2016-07-23T05:49:51.050Z,8.7
2016-07-23T05:50:21.064Z,8.78
2016-07-23T05:50:51.080Z,8.85
2016-07-23T05:51:21.093Z,8.75
2016-07-23T05:51:51.108Z,8.8
2016-07-23T05:52:21.123Z,8.82
2016-07-23T05:52:51.145Z,8.82
2016-07-23T05:53:21.156Z,8.84
2016-07-23T05:53:51.171Z,8.88
2016-07-23T05:54:21.188Z,8.78
2016-07-23T05:54:51.204Z,8.73
2016-07-23T05:55:21.218Z,9.59
2016-07-23T05:55:51.237Z,8.67
2016-07-23T05:56:21.251Z,8.59
2016-07-23T05:56:51.266Z,8.56
2016-07-23T05:57:21.282Z,8.49
2016-07-23T05:57:51.297Z,8.49
2016-07-23T05:58:21.313Z,41.85
2016-07-23T05:58:51.335Z,8.33
2016-07-23T05:59:21.346Z,8.27
2016-07-23T05:59:51.363Z,8.95
2016-07-23T06:00:21.381Z,8.25
2016-07-23T06:00:51.401Z,8.33
2016-07-23T06:01:21.412Z,8.3
2016-07-23T06:01:51.424Z,8.34
2016-07-23T06:02:21.441Z,8.33
2016-07-23T06:02:51.457Z,8.29
2016-07-23T06:03:21.474Z,51.85
2016-07-23T06:03:51.490Z,36.31
2016-07-23T06:04:21.503Z,24.62
2016-07-23T06:04:51.520Z,24.64
2016-07-23T06:05:21.537Z,22.73
2016-07-23T06:05:51.550Z,24.84
2016-07-23T06:06:21.569Z,23.76
2016-07-23T06:06:51.584Z,53.48
2016-07-23T06:07:21.602Z,44.95
2016-07-23T06:07:51.617Z,56.35
2016-07-23T06:08:21.635Z,8.88
2016-07-23T06:08:51.648Z,8.9
2016-07-23T06:09:21.663Z,8.81
2016-07-23T06:09:51.680Z,8.92
2016-07-23T06:10:21.697Z,8.84
2016-07-23T06:10:51.716Z,8.83
2016-07-23T06:11:21.728Z,8.81
2016-07-23T06:11:51.745Z,8.85
2016-07-23T06:12:21.760Z,8.83
2016-07-23T06:12:51.776Z,8.77
2016-07-23T06:13:21.794Z,9.43
2016-07-23T06:13:51.807Z,8.76
2016-07-23T06:14:21.824Z,8.76
2016-07-23T06:14:51.841Z,8.78
2016-07-23T06:15:21.857Z,8.74
2016-07-23T06:15:51.869Z,8.91
2016-07-23T06:16:21.892Z,9.67
